Time,TemperatureF,DewpointF,PressureIn,WindDirection,WindDirectionDegrees,WindSpeedMPH,WindSpeedGustMPH,Humidity,HourlyPrecipIn,Conditions,Clouds,dailyrainin,SoftwareType,DateUTC
2013-09-02 00:13:00,71.0,69.0,29.86,WSW,248,0.0,0.0,95,0.00,,,0.01,,2013-09-02 05:13:00,
2013-09-02 00:23:00,71.0,69.0,29.86,WSW,248,0.0,0.0,95,0.00,,,0.01,,2013-09-02 05:23:00,
2013-09-02 00:43:00,71.0,70.0,29.86,WSW,248,0.0,0.0,96,0.00,,,0.01,,2013-09-02 05:43:00,
2013-09-02 00:52:00,71.0,69.0,29.86,WSW,248,0.0,0.0,95,0.00,,,0.01,,2013-09-02 05:52:00,
2013-09-02 01:12:00,71.0,70.0,29.86,WSW,248,0.0,0.0,96,0.00,,,0.01,,2013-09-02 06:12:00,
2013-09-02 01:22:00,71.0,69.0,29.86,WSW,248,0.0,0.0,95,0.00,,,0.01,,2013-09-02 06:22:00,
2013-09-02 01:43:00,71.0,70.0,29.86,WSW,248,0.0,0.0,96,0.00,,,0.01,,2013-09-02 06:43:00,
2013-09-02 01:52:00,71.0,70.0,29.86,WSW,248,0.0,0.0,96,0.00,,,0.01,,2013-09-02 06:52:00,
2013-09-02 02:11:00,70.0,69.0,29.85,WSW,248,0.0,0.0,96,0.00,,,0.01,,2013-09-02 07:11:00,
2013-09-02 02:21:00,70.0,69.0,29.85,WSW,248,0.0,0.0,96,0.00,,,0.01,,2013-09-02 07:21:00,
2013-09-02 02:42:00,70.0,69.0,29.85,WSW,248,0.0,0.0,96,0.00,,,0.01,,2013-09-02 07:42:00,
2013-09-02 02:52:00,69.0,68.0,29.85,WSW,248,0.0,0.0,96,0.00,,,0.01,,2013-09-02 07:52:00,
2013-09-02 03:11:00,69.0,68.0,29.85,WSW,248,0.0,0.0,96,0.00,,,0.01,,2013-09-02 08:11:00,
2013-09-02 03:22:00,69.0,68.0,29.85,WSW,248,0.0,0.0,97,0.00,,,0.01,,2013-09-02 08:22:00,
2013-09-02 03:42:00,69.0,68.0,29.86,WSW,248,0.0,0.0,97,0.00,,,0.01,,2013-09-02 08:42:00,
2013-09-02 03:52:00,69.0,68.0,29.86,WSW,248,0.0,0.0,97,0.00,,,0.01,,2013-09-02 08:52:00,
2013-09-02 04:12:00,68.0,67.0,29.86,WSW,248,0.0,0.0,96,0.00,,,0.01,,2013-09-02 09:12:00,
2013-09-02 04:22:00,68.0,67.0,29.86,WSW,248,0.0,0.0,97,0.00,,,0.01,,2013-09-02 09:22:00,
2013-09-02 04:43:00,68.0,67.0,29.86,WSW,248,0.0,0.0,97,0.00,,,0.01,,2013-09-02 09:43:00,
2013-09-02 04:53:00,68.0,67.0,29.86,WSW,248,0.0,0.0,97,0.00,,,0.01,,2013-09-02 09:53:00,
2013-09-02 05:13:00,67.0,66.0,29.86,WSW,248,0.0,0.0,97,0.00,,,0.01,,2013-09-02 10:13:00,
2013-09-02 05:23:00,67.0,66.0,29.86,WSW,248,0.0,0.0,96,0.00,,,0.01,,2013-09-02 10:23:00,
2013-09-02 05:42:00,67.0,66.0,29.87,WSW,248,0.0,0.0,97,0.00,,,0.01,,2013-09-02 10:42:00,
2013-09-02 05:53:00,67.0,66.0,29.87,WSW,248,0.0,0.0,97,0.00,,,0.01,,2013-09-02 10:53:00,
2013-09-02 06:11:00,66.0,65.0,29.87,WSW,248,0.0,0.0,97,0.00,,,0.01,,2013-09-02 11:11:00,
2013-09-02 06:22:00,66.0,65.0,29.88,WSW,248,0.0,0.0,97,0.00,,,0.01,,2013-09-02 11:22:00,
2013-09-02 06:42:00,66.0,65.0,29.88,WSW,248,0.0,0.0,98,0.00,,,0.01,,2013-09-02 11:42:00,
2013-09-02 06:52:00,67.0,66.0,29.88,WSW,248,0.0,0.0,98,0.00,,,0.01,,2013-09-02 11:52:00,
2013-09-02 07:12:00,67.0,66.0,29.89,WSW,248,0.0,0.0,98,0.00,,,0.01,,2013-09-02 12:12:00,
2013-09-02 07:21:00,67.0,66.0,29.89,WSW,248,0.0,0.0,98,0.00,,,0.01,,2013-09-02 12:21:00,
2013-09-02 07:43:00,67.0,66.0,29.90,WSW,248,0.0,0.0,98,0.00,,,0.01,,2013-09-02 12:43:00,
2013-09-02 07:52:00,67.0,66.0,29.91,WSW,248,0.0,0.0,98,0.00,,,0.01,,2013-09-02 12:52:00,
2013-09-02 08:11:00,67.0,66.0,29.91,WSW,248,0.0,0.0,98,0.00,,,0.01,,2013-09-02 13:11:00,
2013-09-02 08:22:00,68.0,67.0,29.91,WSW,248,0.0,0.0,98,0.00,,,0.01,,2013-09-02 13:22:00,
2013-09-02 08:42:00,69.0,68.0,29.92,WSW,248,0.0,1.0,96,0.00,,,0.01,,2013-09-02 13:42:00,
2013-09-02 08:52:00,70.0,68.0,29.92,WSW,240,0.0,2.0,93,0.00,,,0.01,,2013-09-02 13:52:00,
2013-09-02 09:11:00,71.0,68.0,29.92,SSE,150,0.0,1.0,91,0.00,,,0.01,,2013-09-02 14:11:00,
2013-09-02 09:22:00,72.0,69.0,29.92,ENE,74,0.0,4.0,89,0.00,,,0.01,,2013-09-02 14:22:00,
2013-09-02 09:43:00,73.0,69.0,29.93,East,86,0.0,4.0,86,0.00,,,0.01,,2013-09-02 14:43:00,
2013-09-02 09:52:00,74.0,69.0,29.93,ENE,78,0.0,2.0,84,0.00,,,0.01,,2013-09-02 14:52:00,
2013-09-02 10:12:00,76.0,70.0,29.94,ENE,70,0.0,1.0,81,0.01,,,0.02,,2013-09-02 15:12:00,
2013-09-02 10:23:00,78.0,71.0,29.94,ENE,65,0.0,4.0,79,0.01,,,0.02,,2013-09-02 15:23:00,
2013-09-02 10:54:00,80.0,72.0,29.95,ENE,71,0.0,1.0,76,0.01,,,0.02,,2013-09-02 15:54:00,
2013-09-02 11:14:00,81.0,70.0,29.94,SE,133,0.0,5.0,70,0.00,,,0.02,,2013-09-02 16:14:00,
2013-09-02 11:24:00,82.0,71.0,29.94,NE,52,0.0,4.0,69,0.00,,,0.02,,2013-09-02 16:24:00,
2013-09-02 11:42:00,83.0,70.0,29.95,SE,140,0.0,2.0,65,0.00,,,0.02,,2013-09-02 16:42:00,
2013-09-02 11:53:00,84.0,71.0,29.95,ESE,103,0.0,7.0,66,0.00,,,0.02,,2013-09-02 16:53:00,
2013-09-02 12:13:00,84.0,70.0,29.94,NW,321,0.0,5.0,62,0.00,,,0.02,,2013-09-02 17:13:00,
2013-09-02 12:23:00,84.0,68.0,29.94,East,98,0.0,2.0,59,0.00,,,0.02,,2013-09-02 17:23:00,
2013-09-02 12:44:00,85.0,69.0,29.94,NW,313,0.0,4.0,59,0.00,,,0.02,,2013-09-02 17:44:00,
2013-09-02 12:52:00,86.0,68.0,29.93,SSE,165,0.0,5.0,55,0.00,,,0.02,,2013-09-02 17:52:00,
2013-09-02 13:13:00,86.0,69.0,29.93,NE,38,0.0,5.0,57,0.00,,,0.02,,2013-09-02 18:13:00,
2013-09-02 13:22:00,87.0,70.0,29.93,NE,56,0.0,5.0,58,0.00,,,0.02,,2013-09-02 18:22:00,
2013-09-02 13:52:00,86.0,69.0,29.93,West,262,0.0,7.0,57,0.00,,,0.02,,2013-09-02 18:52:00,
2013-09-02 14:12:00,87.0,68.0,29.93,WSW,244,0.0,1.0,54,0.00,,,0.02,,2013-09-02 19:12:00,
2013-09-02 14:22:00,87.0,68.0,29.93,WSW,247,0.0,2.0,53,0.00,,,0.02,,2013-09-02 19:22:00,
2013-09-02 14:52:00,87.0,67.0,29.92,SSE,164,0.0,7.0,52,0.00,,,0.02,,2013-09-02 19:52:00,
2013-09-02 15:12:00,87.0,67.0,29.92,WSW,248,0.0,2.0,52,0.00,,,0.02,,2013-09-02 20:12:00,
2013-09-02 15:22:00,87.0,67.0,29.91,West,270,1.0,5.0,52,0.00,,,0.02,,2013-09-02 20:22:00,
2013-09-02 15:52:00,88.0,66.0,29.90,West,271,1.0,6.0,49,0.00,,,0.02,,2013-09-02 20:52:00,
2013-09-02 16:12:00,88.0,68.0,29.90,SSW,202,0.0,2.0,51,0.00,,,0.02,,2013-09-02 21:12:00,
2013-09-02 16:23:00,88.0,66.0,29.89,NW,323,0.0,4.0,49,0.00,,,0.02,,2013-09-02 21:23:00,
2013-09-02 16:54:00,89.0,68.0,29.89,WSW,243,0.0,2.0,50,0.00,,,0.02,,2013-09-02 21:54:00,
2013-09-02 17:13:00,88.0,66.0,29.89,West,271,0.0,2.0,49,0.00,,,0.02,,2013-09-02 22:13:00,
2013-09-02 17:24:00,88.0,66.0,29.89,WNW,290,0.0,4.0,48,0.00,,,0.02,,2013-09-02 22:24:00,
2013-09-02 17:44:00,87.0,65.0,29.88,WSW,252,0.0,5.0,49,0.00,,,0.01,,2013-09-02 22:44:00,
2013-09-02 17:54:00,88.0,66.0,29.88,WSW,245,0.0,4.0,48,0.00,,,0.01,,2013-09-02 22:54:00,
2013-09-02 18:12:00,87.0,65.0,29.88,WSW,252,0.0,5.0,49,0.00,,,0.01,,2013-09-02 23:12:00,
2013-09-02 18:22:00,87.0,65.0,29.88,WSW,254,0.0,4.0,48,0.00,,,0.01,,2013-09-02 23:22:00,
2013-09-02 18:52:00,86.0,65.0,29.88,NE,44,0.0,1.0,50,0.00,,,0.01,,2013-09-02 23:52:00,
2013-09-02 19:12:00,85.0,66.0,29.88,NNE,32,0.0,0.0,53,0.00,,,0.01,,2013-09-03 00:12:00,
2013-09-02 19:22:00,83.0,65.0,29.88,NNE,32,0.0,0.0,55,0.00,,,0.01,,2013-09-03 00:22:00,
2013-09-02 19:42:00,81.0,65.0,29.88,NNE,32,0.0,0.0,59,0.00,,,0.01,,2013-09-03 00:42:00,
2013-09-02 19:52:00,78.0,66.0,29.88,NNE,32,0.0,0.0,66,0.00,,,0.01,,2013-09-03 00:52:00,
2013-09-02 20:11:00,75.0,66.0,29.88,NNE,32,0.0,0.0,73,0.00,,,0.01,,2013-09-03 01:11:00,
2013-09-02 20:21:00,73.0,65.0,29.88,NNE,32,0.0,0.0,77,0.00,,,0.01,,2013-09-03 01:21:00,
2013-09-02 21:21:00,68.0,64.0,29.90,NNE,32,0.0,0.0,86,0.00,,,0.01,,2013-09-03 02:21:00,
2013-09-02 21:42:00,67.0,63.0,29.90,NNE,32,0.0,0.0,88,0.00,,,0.01,,2013-09-03 02:42:00,
2013-09-02 22:11:00,66.0,63.0,29.91,NNE,32,0.0,0.0,89,0.00,,,0.01,,2013-09-03 03:11:00,
2013-09-02 22:23:00,65.0,62.0,29.92,NNE,32,0.0,0.0,90,0.00,,,0.01,,2013-09-03 03:23:00,
2013-09-02 22:45:00,64.0,61.0,29.92,NNE,32,0.0,0.0,90,0.00,,,0.01,,2013-09-03 03:45:00,
2013-09-02 22:55:00,64.0,61.0,29.93,NNE,32,0.0,0.0,91,0.00,,,0.01,,2013-09-03 03:55:00,
2013-09-02 23:14:00,64.0,61.0,29.93,NNE,32,0.0,0.0,91,0.00,,,0.01,,2013-09-03 04:14:00,
2013-09-02 23:25:00,63.0,61.0,29.93,NNE,32,0.0,0.0,92,0.00,,,0.01,,2013-09-03 04:25:00,
2013-09-02 23:44:00,63.0,61.0,29.94,NNE,32,0.0,0.0,93,0.00,,,0.01,,2013-09-03 04:44:00,
2013-09-02 23:53:00,63.0,61.0,29.94,NNE,32,0.0,0.0,93,0.00,,,0.01,,2013-09-03 04:53:00,